Terminal Aerodrome Forecast
Issued by NWS Milwaukee/Sullivan, WI

Home | Current Version | Previous Version | Text Only | Print | Product List | Glossary On
Versions: 1 2 3 4 5 6 7 8 9 10 11 12 13 14 15 16 17 18 19 20 21 22 23 24 25 26 27 28 29 30 31 32 33 34 35 36 37 38 39 40 41 42 43 44 45 46 47 48 49 50
000
FTUS43 KMKX 302329
TAFMKE
TAF
KMKE 302329Z 3100/0106 26008KT P6SM SCT035
     FM310500 28003KT P6SM SCT050
     FM310700 VRB03KT 5SM BR SCT003
     FM310900 VRB03KT 2SM BR BKN005
     FM311300 VRB03KT 4SM BR BKN012
     FM311500 12005KT P6SM SCT020
     FM311800 14005KT P6SM SCT025 SCT150
     FM010300 16007KT P6SM BKN120=

USA.gov is the U.S. government's official web portal to all federal, state and local government web resources and services.